Time;durP1;ratioP1;P1;durP2;ratioP2;P2;SDS_P1;SDS_P2;PMS_P1;PMS_P2;Temp;Humidity;BMP_temperature;BMP_pressure;BME280_temperature;BME280_humidity;BME280_pressure;Samples;Min_cycle;Max_cycle;Signal;HPM_P1;HPM_P2
2022/03/03 00:00:45;;;;;;;35.23;16.40;;;1.30;99.90;;;;;;5067626;28;20270;-80
2022/03/03 00:03:12;;;;;;;34.60;15.53;;;1.20;99.90;;;;;;5081673;28;20204;-80
2022/03/03 00:05:39;;;;;;;27.83;15.13;;;1.20;99.90;;;;;;5061038;28;20567;-80
2022/03/03 00:08:06;;;;;;;33.93;15.50;;;1.10;99.90;;;;;;5077385;28;20262;-80
2022/03/03 00:10:33;;;;;;;37.47;16.33;;;1.10;99.90;;;;;;5068045;28;20285;-82
2022/03/03 00:13:00;;;;;;;35.67;15.47;;;1.10;99.90;;;;;;5071538;28;20205;-81
2022/03/03 00:15:27;;;;;;;33.17;16.17;;;1.10;99.90;;;;;;5044758;28;20242;-80
2022/03/03 00:17:53;;;;;;;33.27;14.90;;;0.90;99.90;;;;;;5075768;28;20743;-81
2022/03/03 00:20:20;;;;;;;32.57;15.53;;;1.00;99.90;;;;;;5076063;28;20288;-81
2022/03/03 00:22:47;;;;;;;30.07;15.53;;;1.00;99.90;;;;;;5055950;28;20215;-82
2022/03/03 00:25:14;;;;;;;32.40;16.27;;;0.90;99.90;;;;;;5074359;28;20296;-80
2022/03/03 00:27:41;;;;;;;32.57;15.67;;;0.80;99.90;;;;;;5076393;28;20197;-81
2022/03/03 00:30:08;;;;;;;29.13;15.50;;;0.80;99.90;;;;;;5073587;28;20296;-80
2022/03/03 00:32:40;;;;;;;33.83;16.17;;;0.80;99.90;;;;;;5095578;28;20232;-81
2022/03/03 00:35:11;;;;;;;34.10;16.47;;;0.70;99.90;;;;;;5092078;28;20616;-80
2022/03/03 00:37:38;;;;;;;34.13;15.73;;;0.70;99.90;;;;;;5084691;28;20216;-81
2022/03/03 00:40:06;;;;;;;34.67;17.00;;;0.60;99.90;;;;;;5092780;28;20717;-80
2022/03/03 00:42:33;;;;;;;33.00;15.13;;;0.60;99.90;;;;;;5073511;28;20303;-82
2022/03/03 00:45:00;;;;;;;30.10;14.90;;;0.60;99.90;;;;;;5095602;28;20250;-82
2022/03/03 00:47:27;;;;;;;38.13;16.30;;;0.60;99.90;;;;;;5093433;28;20195;-81
2022/03/03 00:49:54;;;;;;;33.40;16.40;;;0.50;99.90;;;;;;5093648;28;20295;-81
2022/03/03 00:52:21;;;;;;;36.03;16.20;;;0.50;99.90;;;;;;5092364;28;20297;-83
2022/03/03 00:54:48;;;;;;;35.97;16.47;;;0.50;99.90;;;;;;5081955;28;20283;-80
2022/03/03 00:57:15;;;;;;;36.03;16.03;;;0.40;99.90;;;;;;5087733;28;20311;-82
2022/03/03 00:59:42;;;;;;;37.60;17.50;;;0.40;99.90;;;;;;5081286;28;20288;-81
2022/03/03 01:02:09;;;;;;;38.63;18.10;;;0.40;99.90;;;;;;5082241;28;20223;-80
2022/03/03 01:04:36;;;;;;;35.13;16.63;;;0.30;99.90;;;;;;5088527;28;20220;-81
2022/03/03 01:07:03;;;;;;;40.13;17.37;;;0.30;99.90;;;;;;5089092;28;20239;-81
2022/03/03 01:09:30;;;;;;;34.90;15.60;;;0.30;99.90;;;;;;5087865;28;20197;-81
2022/03/03 01:11:56;;;;;;;38.87;16.00;;;0.20;99.90;;;;;;5088520;28;20285;-79
2022/03/03 01:14:24;;;;;;;39.63;17.90;;;0.20;99.90;;;;;;5098608;28;20204;-80
2022/03/03 01:16:52;;;;;;;38.77;18.27;;;0.20;99.90;;;;;;5094606;28;20239;-81
2022/03/03 01:19:19;;;;;;;37.27;16.60;;;0.10;99.90;;;;;;5093749;28;20288;-80
2022/03/03 01:21:46;;;;;;;36.43;16.93;;;0.10;99.90;;;;;;5088818;28;20305;-80
2022/03/03 01:24:12;;;;;;;34.23;15.80;;;0.10;99.90;;;;;;5094515;28;20315;-80
2022/03/03 01:26:39;;;;;;;39.93;17.33;;;0.00;99.90;;;;;;5097962;28;20231;-81
2022/03/03 01:29:06;;;;;;;35.03;16.20;;;-0.10;99.90;;;;;;5092385;28;20310;-81
2022/03/03 01:31:33;;;;;;;31.40;16.53;;;-0.10;99.90;;;;;;5090222;28;20235;-80
2022/03/03 01:34:00;;;;;;;35.57;15.87;;;-0.10;99.90;;;;;;5094589;28;20266;-81
2022/03/03 01:36:27;;;;;;;39.77;17.00;;;-0.10;99.90;;;;;;5087738;28;20220;-81
2022/03/03 01:38:54;;;;;;;32.80;17.13;;;-0.10;99.90;;;;;;5091296;28;20309;-80
2022/03/03 01:41:21;;;;;;;39.27;16.50;;;-0.10;99.90;;;;;;5092534;28;20201;-80
2022/03/03 01:43:48;;;;;;;35.77;16.43;;;-0.20;99.90;;;;;;5089020;28;20208;-81
2022/03/03 01:46:16;;;;;;;36.80;16.03;;;-0.20;99.90;;;;;;5085743;28;20328;-81
2022/03/03 01:48:44;;;;;;;37.83;17.97;;;-0.20;99.90;;;;;;5090163;28;20205;-79
2022/03/03 01:51:12;;;;;;;37.03;16.50;;;-0.20;99.90;;;;;;5079179;28;20636;-80
2022/03/03 01:53:39;;;;;;;36.63;17.00;;;-0.30;99.90;;;;;;5090150;28;20208;-80
2022/03/03 01:56:07;;;;;;;40.57;16.27;;;-0.20;99.90;;;;;;5089816;28;20364;-80
2022/03/03 01:58:37;;;;;;;36.13;17.37;;;-0.20;99.90;;;;;;5087741;28;20254;-81
2022/03/03 02:01:04;;;;;;;43.03;16.87;;;-0.30;99.90;;;;;;5094564;28;20665;-80
2022/03/03 02:03:31;;;;;;;37.53;17.43;;;-0.30;99.90;;;;;;5094898;28;20273;-79
2022/03/03 02:05:58;;;;;;;35.13;15.87;;;-0.30;99.90;;;;;;5088274;28;20578;-80
2022/03/03 02:08:27;;;;;;;33.97;15.50;;;-0.30;99.90;;;;;;5089579;28;20236;-79
2022/03/03 02:10:54;;;;;;;38.77;17.93;;;-0.30;99.90;;;;;;5091497;28;20204;-80
2022/03/03 02:13:21;;;;;;;36.30;16.80;;;-0.40;99.90;;;;;;5089550;28;20205;-81
2022/03/03 02:15:52;;;;;;;35.53;16.73;;;-0.40;99.90;;;;;;5088913;28;20213;-80
2022/03/03 02:18:21;;;;;;;35.00;16.10;;;-0.30;99.90;;;;;;5099114;28;20200;-81
2022/03/03 02:20:48;;;;;;;36.13;15.83;;;-0.40;99.90;;;;;;5092928;28;20637;-82
2022/03/03 02:23:15;;;;;;;36.87;16.40;;;-0.40;99.90;;;;;;5088184;28;20279;-81
2022/03/03 02:25:42;;;;;;;36.90;16.53;;;-0.40;99.90;;;;;;5089020;28;20204;-80
2022/03/03 02:28:13;;;;;;;32.33;14.20;;;-0.30;99.90;;;;;;5088637;28;20615;-81
2022/03/03 02:30:40;;;;;;;34.50;16.30;;;-0.50;99.90;;;;;;5075357;28;20303;-81
2022/03/03 02:33:07;;;;;;;36.77;16.33;;;-0.50;99.90;;;;;;5051534;28;20262;-81
2022/03/03 02:35:34;;;;;;;35.83;16.87;;;-0.60;99.90;;;;;;5042629;28;20205;-82
2022/03/03 02:38:00;;;;;;;37.37;15.93;;;-0.60;99.90;;;;;;5064503;28;20303;-80
2022/03/03 02:40:27;;;;;;;35.23;15.73;;;-0.60;99.90;;;;;;5080233;28;20213;-82
2022/03/03 02:42:55;;;;;;;37.13;17.57;;;-0.70;99.90;;;;;;5070502;28;20228;-80
2022/03/03 02:45:22;;;;;;;36.53;16.53;;;-0.60;99.90;;;;;;5056826;28;20283;-80
2022/03/03 02:47:50;;;;;;;38.63;16.47;;;-0.60;99.90;;;;;;5073648;28;20204;-80
2022/03/03 02:50:20;;;;;;;34.83;16.80;;;-0.30;99.90;;;;;;5057991;28;20215;-82
2022/03/03 02:52:48;;;;;;;36.17;16.20;;;-0.70;99.90;;;;;;5067688;28;20296;-82
2022/03/03 02:55:15;;;;;;;37.67;16.47;;;-0.80;99.90;;;;;;5076393;28;20888;-80
2022/03/03 02:57:55;;;;;;;37.07;16.90;;;-0.80;99.90;;;;;;5069467;28;20323;-81
2022/03/03 03:00:27;;;;;;;35.80;16.53;;;-0.80;99.90;;;;;;5071817;28;20274;-83
2022/03/03 03:02:55;;;;;;;42.00;18.67;;;-0.90;99.90;;;;;;5067342;28;20197;-80
2022/03/03 03:05:23;;;;;;;43.20;18.20;;;-0.90;99.90;;;;;;5059023;28;20235;-81
2022/03/03 03:07:50;;;;;;;37.10;17.10;;;-0.90;99.90;;;;;;5051900;28;20614;-81
2022/03/03 03:10:17;;;;;;;40.40;18.50;;;-0.90;99.90;;;;;;5069285;28;20236;-80
2022/03/03 03:12:44;;;;;;;38.70;16.73;;;-0.90;99.90;;;;;;5076848;28;20258;-80
2022/03/03 03:15:12;;;;;;;41.57;17.33;;;-0.90;99.90;;;;;;5075878;28;20216;-81
2022/03/03 03:17:39;;;;;;;37.37;17.03;;;-0.90;99.90;;;;;;5076649;28;20237;-82
2022/03/03 03:20:07;;;;;;;45.63;17.83;;;-1.00;99.90;;;;;;5059124;28;20245;-81
2022/03/03 03:22:36;;;;;;;38.03;17.57;;;-1.00;99.90;;;;;;5070723;28;20295;-83
2022/03/03 03:25:09;;;;;;;37.03;17.60;;;-1.00;99.90;;;;;;5052656;28;20224;-82
2022/03/03 03:27:37;;;;;;;42.33;17.97;;;-1.00;99.90;;;;;;5068020;28;20200;-81
2022/03/03 03:30:06;;;;;;;38.70;18.63;;;-1.00;99.90;;;;;;5053884;28;20211;-81
2022/03/03 03:32:33;;;;;;;40.37;17.77;;;-1.00;99.90;;;;;;5081021;28;20238;-81
2022/03/03 03:35:01;;;;;;;43.33;18.27;;;-1.10;99.90;;;;;;5086095;28;20549;-81
2022/03/03 03:37:28;;;;;;;34.13;16.83;;;-1.10;99.90;;;;;;5089327;28;20273;-81
2022/03/03 03:39:56;;;;;;;38.27;18.30;;;-1.10;99.90;;;;;;5091343;28;20224;-82
2022/03/03 03:42:23;;;;;;;39.63;16.10;;;-1.10;99.90;;;;;;5094861;28;20322;-82
2022/03/03 03:44:50;;;;;;;42.67;19.23;;;-1.20;99.90;;;;;;5093127;28;20236;-82
2022/03/03 03:47:17;;;;;;;44.37;18.33;;;-1.20;99.90;;;;;;5068899;28;20231;-80
2022/03/03 03:49:43;;;;;;;41.57;17.43;;;-1.20;99.90;;;;;;5065517;28;20291;-82
2022/03/03 03:52:10;;;;;;;45.10;18.40;;;-1.20;99.90;;;;;;5087995;28;20211;-80
2022/03/03 03:54:37;;;;;;;34.47;17.33;;;-1.20;99.90;;;;;;5082932;28;20222;-81
2022/03/03 03:57:04;;;;;;;39.47;18.33;;;-1.20;99.90;;;;;;5094047;28;20338;-82
2022/03/03 03:59:31;;;;;;;36.73;18.00;;;-1.20;99.90;;;;;;5094407;28;21014;-81
2022/03/03 04:01:58;;;;;;;37.73;17.90;;;-1.20;99.90;;;;;;5076334;28;20212;-82
2022/03/03 04:04:25;;;;;;;39.57;17.83;;;-1.30;99.90;;;;;;5087199;28;20323;-81
2022/03/03 04:06:52;;;;;;;38.67;18.10;;;-1.30;99.90;;;;;;5090067;28;20323;-80
2022/03/03 04:09:18;;;;;;;42.27;18.17;;;-1.30;99.90;;;;;;5097362;28;20200;-80
2022/03/03 04:11:45;;;;;;;37.93;17.10;;;-1.40;99.90;;;;;;5088762;28;20323;-82
2022/03/03 04:14:12;;;;;;;37.77;16.30;;;-1.40;99.90;;;;;;5082639;28;20214;-81
2022/03/03 04:16:39;;;;;;;40.07;17.73;;;-1.40;99.90;;;;;;5078627;28;20232;-81
2022/03/03 04:19:06;;;;;;;38.90;16.63;;;-1.40;99.90;;;;;;5075790;28;20303;-80
2022/03/03 04:21:32;;;;;;;45.37;17.97;;;-1.40;99.90;;;;;;5092175;28;20218;-81
2022/03/03 04:23:59;;;;;;;39.63;17.60;;;-1.50;99.90;;;;;;5098280;28;20645;-80
2022/03/03 04:26:26;;;;;;;41.57;17.43;;;-1.50;99.90;;;;;;5093698;28;20202;-81
2022/03/03 04:28:53;;;;;;;37.17;16.10;;;-1.50;99.90;;;;;;5084488;28;20303;-81
2022/03/03 04:31:20;;;;;;;41.50;18.30;;;-1.50;99.90;;;;;;5069942;28;20681;-80
2022/03/03 04:33:47;;;;;;;42.10;18.20;;;-1.50;99.90;;;;;;5085072;28;20196;-82
2022/03/03 04:36:14;;;;;;;42.47;19.53;;;-1.50;99.90;;;;;;5074087;28;20202;-82
2022/03/03 04:38:41;;;;;;;43.37;17.50;;;-1.50;99.90;;;;;;5091222;28;20297;-81
2022/03/03 04:41:07;;;;;;;42.50;17.80;;;-1.60;99.90;;;;;;5095185;28;20203;-81
2022/03/03 04:43:34;;;;;;;43.37;18.87;;;-1.50;99.90;;;;;;5093334;28;20214;-81
2022/03/03 04:46:01;;;;;;;41.33;18.67;;;-1.50;99.90;;;;;;5085616;28;20299;-81
2022/03/03 04:48:29;;;;;;;42.57;18.77;;;-1.60;99.90;;;;;;5091936;28;20222;-83
2022/03/03 04:50:58;;;;;;;46.23;19.47;;;-1.60;99.90;;;;;;5084259;28;20215;-82
2022/03/03 04:53:27;;;;;;;44.93;18.87;;;-1.60;99.90;;;;;;5087007;28;20206;-80
2022/03/03 04:55:55;;;;;;;42.97;18.63;;;-1.60;99.90;;;;;;5089189;28;20762;-81
2022/03/03 04:58:22;;;;;;;43.27;18.47;;;-1.60;99.90;;;;;;5089036;28;20250;-82
2022/03/03 05:00:50;;;;;;;45.03;17.90;;;-1.70;99.90;;;;;;5093845;28;20295;-82
2022/03/03 05:03:17;;;;;;;42.40;17.90;;;-1.70;99.90;;;;;;5094638;28;20204;-82
2022/03/03 05:05:44;;;;;;;48.53;19.50;;;-1.70;99.90;;;;;;5068759;28;20200;-83
2022/03/03 05:08:11;;;;;;;45.07;17.30;;;-1.70;99.90;;;;;;5088533;28;20214;-80
2022/03/03 05:10:38;;;;;;;43.30;18.60;;;-1.70;99.90;;;;;;5084448;28;20295;-80
2022/03/03 05:13:05;;;;;;;43.40;19.50;;;-1.80;99.90;;;;;;5076081;28;20701;-81
2022/03/03 05:15:32;;;;;;;43.27;18.63;;;-1.80;99.90;;;;;;5094577;28;20303;-82
2022/03/03 05:17:59;;;;;;;37.77;18.20;;;-1.80;99.90;;;;;;5091373;28;20239;-81
2022/03/03 05:20:26;;;;;;;44.17;18.17;;;-1.70;99.90;;;;;;5099953;28;20204;-82
2022/03/03 05:22:53;;;;;;;50.90;19.87;;;-1.70;99.90;;;;;;5084291;28;20211;-82
2022/03/03 05:25:19;;;;;;;40.67;18.60;;;-1.70;99.90;;;;;;5084366;28;20286;-82
2022/03/03 05:27:47;;;;;;;46.33;19.73;;;-1.80;99.90;;;;;;5090897;28;20214;-81
2022/03/03 05:30:15;;;;;;;48.67;19.90;;;-1.80;99.90;;;;;;5097801;28;20306;-80
2022/03/03 05:32:43;;;;;;;50.00;19.67;;;-1.80;99.90;;;;;;5095922;28;20242;-81
2022/03/03 05:35:10;;;;;;;43.60;18.90;;;-1.80;99.90;;;;;;5079337;28;20304;-81
2022/03/03 05:37:37;;;;;;;40.47;21.03;;;-1.70;99.90;;;;;;5092262;28;20272;-81
2022/03/03 05:40:05;;;;;;;43.37;18.10;;;-1.80;99.90;;;;;;5093444;28;20660;-82
2022/03/03 05:42:32;;;;;;;53.27;19.67;;;-1.80;99.90;;;;;;5078237;28;20211;-82
2022/03/03 05:44:59;;;;;;;39.30;17.37;;;-1.90;99.90;;;;;;5095580;28;20238;-81
2022/03/03 05:47:28;;;;;;;41.73;18.67;;;-1.90;99.90;;;;;;5087853;28;20231;-82
2022/03/03 05:49:56;;;;;;;40.43;18.70;;;-1.90;99.90;;;;;;5088149;28;20286;-82
2022/03/03 05:52:23;;;;;;;44.57;18.93;;;-1.90;99.90;;;;;;5066927;28;20333;-81
2022/03/03 05:54:50;;;;;;;42.23;18.77;;;-1.90;99.90;;;;;;5090533;28;20230;-82
2022/03/03 05:57:20;;;;;;;48.53;19.93;;;-2.00;99.90;;;;;;5090838;28;20234;-81
2022/03/03 05:59:50;;;;;;;44.80;19.40;;;-2.00;99.90;;;;;;5075543;28;20211;-81
2022/03/03 06:02:20;;;;;;;44.00;19.00;;;-1.90;99.90;;;;;;5072458;28;20629;-83
2022/03/03 06:04:48;;;;;;;40.83;19.23;;;-2.00;99.90;;;;;;5086831;28;20195;-81
2022/03/03 06:07:23;;;;;;;44.33;19.00;;;-2.00;99.90;;;;;;5090882;28;20624;-80
2022/03/03 06:09:54;;;;;;;39.90;17.77;;;-2.00;99.90;;;;;;5078089;28;20286;-81
2022/03/03 06:12:40;;;;;;;53.57;20.63;;;-2.00;99.90;;;;;;5080823;28;20329;-81
2022/03/03 06:15:07;;;;;;;47.70;19.43;;;-2.00;99.90;;;;;;5093544;28;20199;-82
2022/03/03 06:17:34;;;;;;;44.40;20.07;;;-2.00;99.90;;;;;;5088794;28;20335;-82
2022/03/03 06:20:04;;;;;;;47.07;20.10;;;-2.10;99.90;;;;;;5074779;28;20211;-82
2022/03/03 06:22:32;;;;;;;46.50;19.67;;;-2.10;99.90;;;;;;5090747;28;20204;-83
2022/03/03 06:24:59;;;;;;;47.57;19.97;;;-2.00;99.90;;;;;;5088585;28;20245;-81
2022/03/03 06:27:26;;;;;;;43.83;19.43;;;-2.00;99.90;;;;;;5071999;28;20341;-82
2022/03/03 06:29:56;;;;;;;46.80;21.40;;;-2.00;99.90;;;;;;5090348;28;20202;-83
2022/03/03 06:32:23;;;;;;;48.83;19.90;;;-2.10;99.90;;;;;;5090913;28;20260;-82
2022/03/03 06:34:50;;;;;;;49.97;20.90;;;-2.00;99.90;;;;;;5094760;28;20211;-82
2022/03/03 06:37:18;;;;;;;43.70;19.20;;;-2.00;99.90;;;;;;5082373;28;20233;-79
2022/03/03 06:39:45;;;;;;;48.37;21.13;;;-2.00;99.90;;;;;;5069349;28;20216;-80
2022/03/03 06:42:11;;;;;;;43.13;19.53;;;-2.00;99.90;;;;;;5088597;28;20295;-80
2022/03/03 06:44:38;;;;;;;48.07;19.10;;;-2.00;99.90;;;;;;5068705;28;20214;-81
2022/03/03 06:47:05;;;;;;;53.87;23.17;;;-2.00;99.90;;;;;;5090052;28;20241;-82
2022/03/03 06:49:32;;;;;;;49.57;20.77;;;-1.90;99.90;;;;;;5088069;28;20300;-79
2022/03/03 06:52:02;;;;;;;48.90;20.50;;;-1.90;99.90;;;;;;5091944;28;20204;-80
2022/03/03 06:54:31;;;;;;;50.40;20.73;;;-1.90;99.90;;;;;;5086993;28;20694;-81
2022/03/03 06:56:58;;;;;;;50.57;21.83;;;-1.90;99.90;;;;;;5095133;28;20207;-81
2022/03/03 06:59:28;;;;;;;50.67;21.77;;;-1.80;99.90;;;;;;5069336;28;20251;-81
2022/03/03 07:01:56;;;;;;;52.60;22.03;;;-1.80;99.90;;;;;;5095223;28;20237;-81
2022/03/03 07:04:23;;;;;;;91.27;29.60;;;-1.80;99.90;;;;;;5070710;28;20701;-81
2022/03/03 07:06:50;;;;;;;89.87;32.57;;;-1.30;99.90;;;;;;5090288;28;20200;-83
2022/03/03 07:09:24;;;;;;;85.30;32.70;;;-0.60;99.90;;;;;;5070178;28;20638;-79
2022/03/03 07:11:51;;;;;;;73.73;29.43;;;0.20;99.90;;;;;;5087924;28;20224;-83
2022/03/03 07:14:18;;;;;;;47.30;23.00;;;;;;;;;;5093283;28;20738;-81
2022/03/03 07:16:52;;;;;;;35.07;18.93;;;2.30;99.90;;;;;;5094040;28;20310;-81
2022/03/03 07:19:37;;;;;;;33.63;17.00;;;3.20;99.90;;;;;;5072456;28;20664;-83
2022/03/03 07:22:10;;;;;;;35.63;16.50;;;4.10;99.90;;;;;;5088359;28;20204;-83
2022/03/03 07:24:58;;;;;;;32.13;16.03;;;4.80;99.90;;;;;;5090111;28;20227;-81
2022/03/03 07:27:26;;;;;;;36.20;15.90;;;5.50;99.90;;;;;;5067269;28;20208;-80
2022/03/03 07:30:02;;;;;;;31.40;15.77;;;6.10;99.90;;;;;;5089129;28;20260;-80
2022/03/03 07:32:34;;;;;;;27.70;15.87;;;6.60;99.90;;;;;;5087861;28;20673;-81
2022/03/03 07:35:07;;;;;;;31.37;16.77;;;;;;;;;;5091697;28;20723;-80
2022/03/03 07:37:38;;;;;;;29.93;16.90;;;7.50;99.90;;;;;;5079032;28;20223;-80
2022/03/03 07:40:08;;;;;;;31.03;17.23;;;7.70;99.90;;;;;;5090352;28;20209;-81
2022/03/03 07:42:37;;;;;;;30.20;16.97;;;8.00;99.90;;;;;;5086118;28;20642;-77
2022/03/03 07:45:05;;;;;;;35.20;17.00;;;8.30;99.90;;;;;;5087450;28;20210;-78
2022/03/03 07:47:32;;;;;;;31.00;18.37;;;8.10;99.90;;;;;;5073193;28;20587;-78
2022/03/03 07:49:59;;;;;;;32.33;17.37;;;7.60;99.90;;;;;;5091826;28;20641;-79
2022/03/03 07:52:28;;;;;;;34.33;18.37;;;6.90;99.90;;;;;;5086250;28;20207;-80
2022/03/03 07:54:55;;;;;;;31.17;17.63;;;6.30;99.90;;;;;;5086566;28;20715;-80
2022/03/03 07:57:22;;;;;;;35.73;18.87;;;5.60;99.90;;;;;;5071770;28;20228;-80
2022/03/03 07:59:58;;;;;;;35.23;18.77;;;5.10;99.90;;;;;;5098213;28;20538;-79
2022/03/03 08:02:26;;;;;;;39.53;19.73;;;4.70;99.90;;;;;;5087614;28;20568;-79
2022/03/03 08:04:53;;;;;;;35.03;18.27;;;4.40;99.90;;;;;;5099933;28;20256;-79
2022/03/03 08:07:20;;;;;;;36.80;19.67;;;4.10;99.90;;;;;;5083995;28;20420;-80
2022/03/03 08:09:48;;;;;;;40.97;19.70;;;3.90;99.90;;;;;;5091791;28;20294;-79
2022/03/03 08:12:21;;;;;;;37.43;19.07;;;3.60;99.90;;;;;;5089045;28;20599;-80
2022/03/03 08:14:49;;;;;;;37.30;19.00;;;3.40;99.90;;;;;;5094235;28;20214;-80
2022/03/03 08:17:18;;;;;;;36.77;19.03;;;3.20;99.90;;;;;;5089362;28;20217;-79
2022/03/03 08:19:45;;;;;;;34.07;18.57;;;3.00;99.90;;;;;;5091646;28;20303;-79
2022/03/03 08:22:13;;;;;;;36.37;18.67;;;2.90;99.90;;;;;;5083206;28;20290;-80
2022/03/03 08:24:43;;;;;;;40.23;19.13;;;2.70;99.90;;;;;;5088202;28;20244;-80
2022/03/03 08:27:12;;;;;;;37.37;19.80;;;2.60;99.90;;;;;;5092521;28;20714;-79
2022/03/03 08:29:39;;;;;;;40.50;19.63;;;2.50;99.90;;;;;;5095376;28;20199;-80
2022/03/03 08:32:11;;;;;;;38.33;19.90;;;2.30;99.90;;;;;;5076375;28;20591;-79
2022/03/03 08:34:45;;;;;;;38.20;20.27;;;2.20;99.90;;;;;;5076064;28;20675;-80
2022/03/03 08:37:28;;;;;;;38.47;19.47;;;2.20;99.90;;;;;;5094119;28;20281;-80
2022/03/03 08:39:58;;;;;;;36.80;19.20;;;2.20;99.90;;;;;;5090598;28;20211;-79
2022/03/03 08:42:30;;;;;;;40.00;19.80;;;2.20;99.90;;;;;;5094435;28;20682;-80
2022/03/03 08:45:02;;;;;;;36.03;18.83;;;2.10;99.90;;;;;;5096602;28;20623;-79
2022/03/03 08:47:31;;;;;;;42.00;19.97;;;2.10;99.90;;;;;;5098112;28;20223;-81
2022/03/03 08:50:02;;;;;;;42.87;20.17;;;2.10;99.90;;;;;;5078747;28;20203;-81
2022/03/03 08:52:49;;;;;;;35.63;18.70;;;2.10;99.90;;;;;;5092958;28;20207;-81
2022/03/03 08:55:16;;;;;;;38.60;19.27;;;2.10;99.90;;;;;;5093924;28;20540;-81
2022/03/03 08:57:43;;;;;;;42.03;19.50;;;2.10;99.90;;;;;;5098454;28;20318;-81
2022/03/03 09:00:11;;;;;;;42.57;20.37;;;2.10;99.90;;;;;;5102281;28;20275;-80
2022/03/03 09:02:40;;;;;;;39.33;19.47;;;2.10;99.90;;;;;;5100479;28;20214;-80
2022/03/03 09:05:08;;;;;;;38.57;19.37;;;2.10;99.90;;;;;;5094413;28;20960;-81
2022/03/03 09:07:35;;;;;;;43.93;20.50;;;2.20;99.90;;;;;;5094459;28;20294;-79
2022/03/03 09:10:02;;;;;;;38.63;19.77;;;2.20;99.90;;;;;;5090751;28;20213;-79
2022/03/03 09:12:29;;;;;;;39.47;20.60;;;2.20;99.90;;;;;;5102437;28;20195;-82
2022/03/03 09:14:56;;;;;;;36.20;19.90;;;2.30;99.90;;;;;;5091717;28;20297;-79
2022/03/03 09:17:27;;;;;;;40.70;20.27;;;2.40;99.90;;;;;;5099948;28;20204;-79
2022/03/03 09:19:53;;;;;;;39.23;20.07;;;2.40;99.90;;;;;;5092578;28;20303;-79
2022/03/03 09:22:20;;;;;;;33.97;18.97;;;2.40;99.90;;;;;;5091875;28;20557;-79
2022/03/03 09:24:47;;;;;;;36.27;19.17;;;2.50;99.90;;;;;;5091806;28;20305;-79
2022/03/03 09:27:14;;;;;;;37.93;18.83;;;2.60;99.90;;;;;;5099524;28;20199;-80
2022/03/03 09:29:40;;;;;;;38.87;18.77;;;2.70;99.90;;;;;;5097732;28;20207;-80
2022/03/03 09:32:09;;;;;;;34.47;18.27;;;2.70;99.90;;;;;;5093065;28;20230;-80
2022/03/03 09:34:36;;;;;;;34.87;19.23;;;2.90;99.90;;;;;;5097426;28;20295;-79
2022/03/03 09:37:03;;;;;;;33.70;18.67;;;3.00;99.90;;;;;;5093038;28;20231;-80
2022/03/03 09:39:29;;;;;;;33.00;18.27;;;3.10;99.90;;;;;;5093916;28;20254;-79
2022/03/03 09:41:56;;;;;;;35.07;17.67;;;3.20;99.90;;;;;;5090336;28;20203;-79
2022/03/03 09:44:25;;;;;;;31.93;17.77;;;3.40;99.90;;;;;;5089522;28;20239;-79
2022/03/03 09:46:53;;;;;;;31.53;16.53;;;3.70;99.90;;;;;;5087187;28;20241;-79
2022/03/03 09:49:20;;;;;;;26.73;14.67;;;4.00;99.90;;;;;;5091626;28;20203;-79
2022/03/03 09:51:50;;;;;;;26.00;14.93;;;4.30;99.90;;;;;;5093468;28;20239;-79
2022/03/03 09:54:18;;;;;;;26.17;14.97;;;4.60;99.90;;;;;;5070696;28;20210;-78
2022/03/03 09:56:45;;;;;;;27.30;15.00;;;4.80;99.90;;;;;;5093773;28;20227;-78
2022/03/03 09:59:15;;;;;;;23.03;13.63;;;5.00;99.90;;;;;;5093401;28;20310;-79
2022/03/03 10:01:42;;;;;;;27.53;15.87;;;5.20;99.90;;;;;;5095534;28;20213;-78
2022/03/03 10:04:17;;;;;;;27.53;14.27;;;5.40;99.90;;;;;;5093690;28;20294;-78
2022/03/03 10:06:44;;;;;;;23.93;13.77;;;5.60;99.90;;;;;;5093969;28;20190;-78
2022/03/03 10:09:12;;;;;;;26.23;14.77;;;5.70;99.90;;;;;;5092836;28;20240;-80
2022/03/03 10:11:48;;;;;;;24.77;14.70;;;5.90;99.90;;;;;;5093322;28;20735;-78
2022/03/03 10:14:32;;;;;;;28.60;14.47;;;5.90;99.90;;;;;;5097681;28;20228;-79
2022/03/03 10:17:00;;;;;;;26.17;14.97;;;6.00;99.90;;;;;;5091785;28;20609;-78
2022/03/03 10:19:56;;;;;;;26.23;14.43;;;6.10;99.90;;;;;;5094054;28;20756;-79
2022/03/03 10:22:43;;;;;;;23.67;13.93;;;6.20;99.90;;;;;;5090233;28;20282;-79
2022/03/03 10:25:12;;;;;;;23.87;14.20;;;6.30;99.90;;;;;;5089035;28;20218;-79
2022/03/03 10:27:40;;;;;;;22.40;14.10;;;6.40;99.90;;;;;;5090624;28;20230;-80
2022/03/03 10:30:09;;;;;;;30.50;15.17;;;6.40;99.90;;;;;;5091927;28;20203;-78
2022/03/03 10:32:38;;;;;;;26.23;14.23;;;6.50;99.90;;;;;;5076389;28;20263;-80
2022/03/03 10:35:19;;;;;;;25.80;14.63;;;6.60;99.90;;;;;;5069317;28;20298;-80
2022/03/03 10:37:47;;;;;;;23.30;14.60;;;6.70;99.90;;;;;;5087582;28;20212;-80
2022/03/03 10:40:17;;;;;;;23.17;14.40;;;6.80;99.90;;;;;;5076590;28;20212;-80
2022/03/03 10:42:50;;;;;;;23.77;13.13;;;6.90;99.90;;;;;;5089730;28;20202;-81
2022/03/03 10:45:19;;;;;;;22.63;13.23;;;7.00;99.90;;;;;;5088456;28;20216;-80
2022/03/03 10:47:59;;;;;;;20.90;13.17;;;7.20;99.90;;;;;;5085685;28;20204;-80
2022/03/03 10:50:26;;;;;;;25.33;13.07;;;7.30;99.90;;;;;;5095117;28;20236;-80
2022/03/03 10:52:53;;;;;;;27.40;14.83;;;7.40;99.90;;;;;;5075375;28;20288;-80
2022/03/03 10:55:20;;;;;;;24.23;14.03;;;7.40;99.90;;;;;;5088868;28;20251;-80
2022/03/03 10:57:59;;;;;;;23.70;14.57;;;7.60;99.90;;;;;;5090117;28;20299;-80
2022/03/03 11:00:30;;;;;;;22.50;13.37;;;7.70;99.90;;;;;;5089797;28;20223;-80
2022/03/03 11:03:01;;;;;;;22.87;13.47;;;7.80;99.90;;;;;;5094649;28;20224;-79
2022/03/03 11:05:29;;;;;;;23.77;13.93;;;7.90;99.90;;;;;;5089606;28;20204;-80
2022/03/03 11:07:56;;;;;;;22.53;13.03;;;8.10;99.90;;;;;;5085962;28;20220;-80
2022/03/03 11:10:27;;;;;;;25.37;13.73;;;8.20;99.90;;;;;;5081180;28;20217;-81
2022/03/03 11:12:54;;;;;;;21.03;13.03;;;8.30;99.90;;;;;;5093287;28;20222;-80
2022/03/03 11:15:24;;;;;;;24.97;13.83;;;8.50;99.90;;;;;;5088769;28;20225;-79
2022/03/03 11:17:52;;;;;;;24.03;13.93;;;8.60;99.90;;;;;;5058496;28;20212;-79
2022/03/03 11:20:20;;;;;;;22.20;14.07;;;8.70;99.90;;;;;;5080395;28;20554;-78
2022/03/03 11:22:52;;;;;;;22.90;13.40;;;8.80;99.90;;;;;;5083442;28;20329;-80
2022/03/03 11:25:28;;;;;;;24.63;13.60;;;8.90;99.90;;;;;;5077815;28;20659;-82
2022/03/03 11:28:09;;;;;;;23.90;14.10;;;9.10;99.90;;;;;;5088151;28;20630;-80
2022/03/03 11:30:36;;;;;;;20.73;12.67;;;9.20;99.90;;;;;;5086241;28;20321;-80
2022/03/03 11:33:30;;;;;;;20.17;12.43;;;9.40;99.90;;;;;;5068479;28;20232;-79
2022/03/03 11:36:03;;;;;;;19.70;12.07;;;9.60;99.90;;;;;;5086690;28;20227;-80
2022/03/03 11:38:45;;;;;;;21.57;13.53;;;9.70;99.90;;;;;;5085000;28;20220;-80
2022/03/03 11:41:12;;;;;;;21.30;13.50;;;9.80;99.90;;;;;;5086059;28;20701;-79
2022/03/03 11:43:48;;;;;;;17.43;11.63;;;9.90;99.90;;;;;;5060658;28;20307;-84
2022/03/03 11:46:44;;;;;;;20.00;12.13;;;10.00;99.90;;;;;;5095729;28;20218;-79
2022/03/03 11:49:22;;;;;;;22.10;13.10;;;10.20;98.40;;;;;;5086299;28;20265;-80
2022/03/03 11:51:50;;;;;;;21.13;13.30;;;10.30;98.60;;;;;;5094486;28;20615;-79
2022/03/03 11:54:31;;;;;;;22.50;14.20;;;10.40;98.00;;;;;;5093486;28;20204;-79
2022/03/03 11:57:04;;;;;;;19.47;12.83;;;10.50;98.50;;;;;;5093567;28;20210;-79
2022/03/03 11:59:35;;;;;;;22.30;13.50;;;10.50;97.60;;;;;;5088235;28;20228;-79
2022/03/03 12:02:02;;;;;;;20.33;13.10;;;10.70;97.50;;;;;;5096083;28;20727;-79
2022/03/03 12:04:29;;;;;;;21.20;12.97;;;10.70;96.70;;;;;;5071119;28;20201;-79
2022/03/03 12:06:56;;;;;;;21.77;13.87;;;10.70;96.60;;;;;;5070802;28;20470;-80
2022/03/03 12:09:30;;;;;;;22.73;14.30;;;10.80;96.20;;;;;;5088435;28;20205;-79
2022/03/03 12:12:19;;;;;;;20.10;12.90;;;10.90;95.80;;;;;;5088836;28;20582;-79
2022/03/03 12:14:55;;;;;;;21.13;12.73;;;11.00;95.00;;;;;;5094587;28;20206;-79
2022/03/03 12:17:44;;;;;;;21.80;13.27;;;11.10;95.10;;;;;;5092258;28;20218;-78
2022/03/03 12:20:23;;;;;;;20.63;12.73;;;11.20;94.20;;;;;;5092431;28;20265;-79
2022/03/03 12:23:31;;;;;;;19.43;13.33;;;11.20;93.90;;;;;;5095192;28;20213;-80
2022/03/03 12:26:01;;;;;;;21.50;12.70;;;11.30;93.60;;;;;;5087113;28;20709;-78
2022/03/03 12:28:48;;;;;;;18.23;12.43;;;11.40;93.40;;;;;;5094592;28;20233;-80
2022/03/03 12:31:27;;;;;;;18.17;12.60;;;11.50;92.20;;;;;;5089681;28;20671;-79
2022/03/03 12:34:02;;;;;;;20.13;13.60;;;11.50;92.50;;;;;;5095894;28;20201;-79
2022/03/03 12:36:31;;;;;;;20.13;13.40;;;11.60;92.70;;;;;;5087569;28;20202;-78
2022/03/03 12:38:59;;;;;;;21.50;13.90;;;11.60;92.30;;;;;;5085340;28;20226;-79
2022/03/03 12:41:30;;;;;;;21.13;12.93;;;11.70;92.40;;;;;;5085503;28;20726;-79
2022/03/03 12:44:12;;;;;;;21.20;12.73;;;11.70;91.90;;;;;;5075159;28;20218;-79